sensor_id;sensor_type;location;lat;lon;timestamp;P1;durP1;ratioP1;P2;durP2;ratioP2
55035;SDS011;40936;53.008;6.556;2022-07-29T00:02:17;1999.90;;;999.90;;
55035;SDS011;40936;53.008;6.556;2022-07-29T00:04:43;1194.15;;;755.05;;
55035;SDS011;40936;53.008;6.556;2022-07-29T00:07:08;1999.90;;;999.90;;
55035;SDS011;40936;53.008;6.556;2022-07-29T00:09:34;1999.90;;;999.90;;
55035;SDS011;40936;53.008;6.556;2022-07-29T00:12:00;1999.90;;;999.90;;
55035;SDS011;40936;53.008;6.556;2022-07-29T00:14:27;1838.53;;;999.90;;
55035;SDS011;40936;53.008;6.556;2022-07-29T00:16:53;1999.90;;;999.90;;
55035;SDS011;40936;53.008;6.556;2022-07-29T00:19:18;1918.90;;;999.90;;
55035;SDS011;40936;53.008;6.556;2022-07-29T00:21:44;1999.90;;;999.90;;
55035;SDS011;40936;53.008;6.556;2022-07-29T00:24:10;1999.90;;;999.90;;
55035;SDS011;40936;53.008;6.556;2022-07-29T00:26:35;1999.90;;;999.90;;
55035;SDS011;40936;53.008;6.556;2022-07-29T00:29:02;1473.53;;;932.05;;
55035;SDS011;40936;53.008;6.556;2022-07-29T00:31:29;1999.90;;;999.90;;
55035;SDS011;40936;53.008;6.556;2022-07-29T00:33:55;1337.05;;;960.25;;
55035;SDS011;40936;53.008;6.556;2022-07-29T00:36:21;1456.28;;;993.55;;
55035;SDS011;40936;53.008;6.556;2022-07-29T00:38:48;1723.15;;;999.90;;
55035;SDS011;40936;53.008;6.556;2022-07-29T00:41:15;1999.90;;;999.90;;
55035;SDS011;40936;53.008;6.556;2022-07-29T00:43:41;1999.90;;;999.90;;
55035;SDS011;40936;53.008;6.556;2022-07-29T00:46:07;1999.90;;;999.90;;
55035;SDS011;40936;53.008;6.556;2022-07-29T00:48:33;1999.90;;;999.90;;
55035;SDS011;40936;53.008;6.556;2022-07-29T00:50:59;1999.90;;;999.90;;
55035;SDS011;40936;53.008;6.556;2022-07-29T00:53:27;1999.90;;;999.90;;
55035;SDS011;40936;53.008;6.556;2022-07-29T00:55:53;1999.90;;;999.90;;
55035;SDS011;40936;53.008;6.556;2022-07-29T00:58:20;1999.90;;;999.90;;
55035;SDS011;40936;53.008;6.556;2022-07-29T01:00:46;1935.00;;;999.90;;
55035;SDS011;40936;53.008;6.556;2022-07-29T01:03:12;1999.90;;;999.90;;
55035;SDS011;40936;53.008;6.556;2022-07-29T01:05:38;1999.90;;;999.90;;
55035;SDS011;40936;53.008;6.556;2022-07-29T01:08:05;1999.90;;;999.90;;
55035;SDS011;40936;53.008;6.556;2022-07-29T01:10:31;1999.90;;;999.90;;
55035;SDS011;40936;53.008;6.556;2022-07-29T01:12:58;1999.90;;;999.90;;
55035;SDS011;40936;53.008;6.556;2022-07-29T01:15:25;1999.90;;;999.90;;
55035;SDS011;40936;53.008;6.556;2022-07-29T01:18:01;1905.75;;;999.90;;
55035;SDS011;40936;53.008;6.556;2022-07-29T01:23:16;1999.90;;;999.90;;
55035;SDS011;40936;53.008;6.556;2022-07-29T01:29:07;1999.90;;;999.90;;
55035;SDS011;40936;53.008;6.556;2022-07-29T01:31:51;1999.18;;;999.90;;
55035;SDS011;40936;53.008;6.556;2022-07-29T01:35:16;1990.13;;;999.90;;
55035;SDS011;40936;53.008;6.556;2022-07-29T01:37:43;1999.90;;;999.90;;
55035;SDS011;40936;53.008;6.556;2022-07-29T01:40:57;1999.90;;;999.90;;
55035;SDS011;40936;53.008;6.556;2022-07-29T01:43:10;1999.90;;;999.90;;
55035;SDS011;40936;53.008;6.556;2022-07-29T01:48:35;1487.80;;;943.55;;
55035;SDS011;40936;53.008;6.556;2022-07-29T01:53:57;1999.90;;;999.90;;
55035;SDS011;40936;53.008;6.556;2022-07-29T01:56:26;1999.90;;;999.90;;
55035;SDS011;40936;53.008;6.556;2022-07-29T01:58:59;1999.90;;;939.42;;
55035;SDS011;40936;53.008;6.556;2022-07-29T02:01:27;1999.90;;;999.90;;
55035;SDS011;40936;53.008;6.556;2022-07-29T02:03:56;1830.80;;;999.90;;
55035;SDS011;40936;53.008;6.556;2022-07-29T02:06:24;1999.90;;;999.90;;
55035;SDS011;40936;53.008;6.556;2022-07-29T02:08:51;1999.90;;;999.90;;
55035;SDS011;40936;53.008;6.556;2022-07-29T02:13:44;1709.72;;;999.90;;
55035;SDS011;40936;53.008;6.556;2022-07-29T02:16:12;1999.90;;;999.90;;
55035;SDS011;40936;53.008;6.556;2022-07-29T02:21:07;1999.90;;;999.90;;
55035;SDS011;40936;53.008;6.556;2022-07-29T02:26:00;1931.65;;;999.90;;
55035;SDS011;40936;53.008;6.556;2022-07-29T02:28:28;1999.90;;;999.90;;
55035;SDS011;40936;53.008;6.556;2022-07-29T02:30:55;1999.90;;;999.90;;
55035;SDS011;40936;53.008;6.556;2022-07-29T02:33:24;1999.90;;;999.90;;
55035;SDS011;40936;53.008;6.556;2022-07-29T02:35:51;1999.90;;;999.90;;
55035;SDS011;40936;53.008;6.556;2022-07-29T02:38:17;1999.90;;;999.90;;
55035;SDS011;40936;53.008;6.556;2022-07-29T02:41:13;1999.90;;;999.90;;
55035;SDS011;40936;53.008;6.556;2022-07-29T02:43:50;1591.45;;;999.90;;
55035;SDS011;40936;53.008;6.556;2022-07-29T02:46:21;1999.90;;;999.90;;
55035;SDS011;40936;53.008;6.556;2022-07-29T02:51:51;1629.45;;;948.90;;
55035;SDS011;40936;53.008;6.556;2022-07-29T02:54:21;1471.93;;;982.95;;
55035;SDS011;40936;53.008;6.556;2022-07-29T02:57:11;1999.90;;;999.90;;
55035;SDS011;40936;53.008;6.556;2022-07-29T02:59:45;1999.90;;;999.90;;
55035;SDS011;40936;53.008;6.556;2022-07-29T03:02:14;1999.90;;;999.90;;
55035;SDS011;40936;53.008;6.556;2022-07-29T03:04:42;1999.90;;;932.17;;
55035;SDS011;40936;53.008;6.556;2022-07-29T03:07:10;1999.90;;;999.90;;
55035;SDS011;40936;53.008;6.556;2022-07-29T03:09:38;1999.90;;;999.90;;
55035;SDS011;40936;53.008;6.556;2022-07-29T03:12:06;1999.90;;;999.90;;
55035;SDS011;40936;53.008;6.556;2022-07-29T03:14:33;1999.90;;;999.90;;
55035;SDS011;40936;53.008;6.556;2022-07-29T03:17:00;1908.63;;;999.90;;
55035;SDS011;40936;53.008;6.556;2022-07-29T03:19:25;1999.90;;;999.90;;
55035;SDS011;40936;53.008;6.556;2022-07-29T03:21:52;1886.50;;;999.90;;
55035;SDS011;40936;53.008;6.556;2022-07-29T03:24:33;1999.90;;;999.90;;
55035;SDS011;40936;53.008;6.556;2022-07-29T03:27:01;1999.90;;;999.90;;
55035;SDS011;40936;53.008;6.556;2022-07-29T03:29:28;1999.90;;;999.90;;
55035;SDS011;40936;53.008;6.556;2022-07-29T03:31:53;1999.90;;;999.90;;
55035;SDS011;40936;53.008;6.556;2022-07-29T03:34:19;1999.90;;;999.90;;
55035;SDS011;40936;53.008;6.556;2022-07-29T03:36:45;1259.53;;;999.90;;
55035;SDS011;40936;53.008;6.556;2022-07-29T03:39:12;1999.90;;;999.90;;
55035;SDS011;40936;53.008;6.556;2022-07-29T03:41:42;1121.47;;;998.75;;
55035;SDS011;40936;53.008;6.556;2022-07-29T03:44:10;1999.90;;;999.90;;
55035;SDS011;40936;53.008;6.556;2022-07-29T03:46:38;1999.90;;;999.90;;
55035;SDS011;40936;53.008;6.556;2022-07-29T03:49:06;1999.90;;;999.90;;
55035;SDS011;40936;53.008;6.556;2022-07-29T03:51:34;1999.90;;;999.90;;
55035;SDS011;40936;53.008;6.556;2022-07-29T03:54:00;1367.72;;;997.15;;
55035;SDS011;40936;53.008;6.556;2022-07-29T03:56:27;1999.90;;;999.90;;
55035;SDS011;40936;53.008;6.556;2022-07-29T03:58:54;1999.90;;;999.90;;
55035;SDS011;40936;53.008;6.556;2022-07-29T04:01:21;1999.90;;;999.90;;
55035;SDS011;40936;53.008;6.556;2022-07-29T04:03:48;1999.90;;;999.90;;
55035;SDS011;40936;53.008;6.556;2022-07-29T04:06:14;1999.90;;;999.90;;
55035;SDS011;40936;53.008;6.556;2022-07-29T04:08:40;1423.38;;;999.90;;
55035;SDS011;40936;53.008;6.556;2022-07-29T04:11:05;1999.90;;;999.90;;
55035;SDS011;40936;53.008;6.556;2022-07-29T04:13:32;1989.38;;;999.90;;
55035;SDS011;40936;53.008;6.556;2022-07-29T04:15:58;1837.88;;;999.90;;
55035;SDS011;40936;53.008;6.556;2022-07-29T04:18:24;1999.90;;;999.90;;
55035;SDS011;40936;53.008;6.556;2022-07-29T04:20:50;1999.90;;;999.90;;
55035;SDS011;40936;53.008;6.556;2022-07-29T04:23:16;1999.90;;;999.90;;
55035;SDS011;40936;53.008;6.556;2022-07-29T04:25:42;1683.00;;;999.90;;
55035;SDS011;40936;53.008;6.556;2022-07-29T04:28:08;1817.85;;;999.90;;
55035;SDS011;40936;53.008;6.556;2022-07-29T04:30:35;1143.57;;;999.90;;
55035;SDS011;40936;53.008;6.556;2022-07-29T04:33:03;1999.90;;;999.90;;
55035;SDS011;40936;53.008;6.556;2022-07-29T04:35:30;1355.63;;;999.90;;
55035;SDS011;40936;53.008;6.556;2022-07-29T04:37:59;1999.90;;;999.90;;
55035;SDS011;40936;53.008;6.556;2022-07-29T04:40:24;1149.63;;;999.90;;
55035;SDS011;40936;53.008;6.556;2022-07-29T04:42:50;1999.90;;;999.90;;
55035;SDS011;40936;53.008;6.556;2022-07-29T04:45:16;1999.90;;;999.90;;
55035;SDS011;40936;53.008;6.556;2022-07-29T04:47:42;1999.90;;;999.90;;
55035;SDS011;40936;53.008;6.556;2022-07-29T04:50:08;1999.90;;;999.90;;
55035;SDS011;40936;53.008;6.556;2022-07-29T04:52:34;1999.90;;;999.90;;
55035;SDS011;40936;53.008;6.556;2022-07-29T04:55:00;1305.18;;;999.90;;
55035;SDS011;40936;53.008;6.556;2022-07-29T04:57:27;1734.57;;;999.90;;
55035;SDS011;40936;53.008;6.556;2022-07-29T04:59:52;1127.78;;;999.90;;
55035;SDS011;40936;53.008;6.556;2022-07-29T05:02:18;1999.90;;;999.90;;
55035;SDS011;40936;53.008;6.556;2022-07-29T05:04:44;1106.00;;;992.72;;
55035;SDS011;40936;53.008;6.556;2022-07-29T05:07:09;1999.90;;;999.90;;
55035;SDS011;40936;53.008;6.556;2022-07-29T05:09:35;1608.50;;;999.90;;
55035;SDS011;40936;53.008;6.556;2022-07-29T05:12:01;1999.90;;;999.90;;
55035;SDS011;40936;53.008;6.556;2022-07-29T05:14:26;1999.90;;;999.90;;
55035;SDS011;40936;53.008;6.556;2022-07-29T05:16:52;1999.90;;;999.90;;
55035;SDS011;40936;53.008;6.556;2022-07-29T05:19:21;1833.28;;;947.38;;
55035;SDS011;40936;53.008;6.556;2022-07-29T05:21:47;1454.85;;;991.45;;
55035;SDS011;40936;53.008;6.556;2022-07-29T05:24:13;1999.90;;;999.90;;
55035;SDS011;40936;53.008;6.556;2022-07-29T05:26:39;1999.90;;;999.90;;
55035;SDS011;40936;53.008;6.556;2022-07-29T05:29:05;1999.90;;;999.90;;
55035;SDS011;40936;53.008;6.556;2022-07-29T05:31:31;1147.43;;;643.42;;
55035;SDS011;40936;53.008;6.556;2022-07-29T05:33:56;1999.90;;;999.90;;
55035;SDS011;40936;53.008;6.556;2022-07-29T05:36:22;1999.90;;;999.90;;
55035;SDS011;40936;53.008;6.556;2022-07-29T05:38:48;1999.90;;;999.90;;
55035;SDS011;40936;53.008;6.556;2022-07-29T05:41:13;1999.90;;;999.90;;
55035;SDS011;40936;53.008;6.556;2022-07-29T05:43:39;761.30;;;432.85;;
55035;SDS011;40936;53.008;6.556;2022-07-29T05:46:05;1444.55;;;999.67;;
55035;SDS011;40936;53.008;6.556;2022-07-29T05:48:31;1999.90;;;999.90;;
55035;SDS011;40936;53.008;6.556;2022-07-29T05:50:57;1759.75;;;989.38;;
55035;SDS011;40936;53.008;6.556;2022-07-29T05:53:23;1999.90;;;999.90;;
55035;SDS011;40936;53.008;6.556;2022-07-29T05:55:48;1999.90;;;999.90;;
55035;SDS011;40936;53.008;6.556;2022-07-29T05:58:15;1650.47;;;827.65;;
55035;SDS011;40936;53.008;6.556;2022-07-29T06:00:41;1375.18;;;941.65;;
55035;SDS011;40936;53.008;6.556;2022-07-29T06:03:06;1600.50;;;987.05;;
55035;SDS011;40936;53.008;6.556;2022-07-29T06:05:32;1726.65;;;881.38;;
55035;SDS011;40936;53.008;6.556;2022-07-29T06:07:58;1236.93;;;987.42;;
55035;SDS011;40936;53.008;6.556;2022-07-29T06:10:23;1523.88;;;999.90;;
55035;SDS011;40936;53.008;6.556;2022-07-29T06:12:49;1608.40;;;834.03;;
55035;SDS011;40936;53.008;6.556;2022-07-29T06:15:15;1020.03;;;781.72;;
55035;SDS011;40936;53.008;6.556;2022-07-29T06:17:41;1999.90;;;999.90;;
55035;SDS011;40936;53.008;6.556;2022-07-29T06:20:06;1449.57;;;811.33;;
55035;SDS011;40936;53.008;6.556;2022-07-29T06:22:32;1999.90;;;999.90;;
55035;SDS011;40936;53.008;6.556;2022-07-29T06:24:58;1473.13;;;999.90;;
55035;SDS011;40936;53.008;6.556;2022-07-29T06:27:24;1446.50;;;829.67;;
55035;SDS011;40936;53.008;6.556;2022-07-29T06:29:49;1381.88;;;787.38;;
55035;SDS011;40936;53.008;6.556;2022-07-29T06:32:15;1279.25;;;885.88;;
55035;SDS011;40936;53.008;6.556;2022-07-29T06:34:41;1047.15;;;739.30;;
55035;SDS011;40936;53.008;6.556;2022-07-29T06:37:07;1313.75;;;709.13;;
55035;SDS011;40936;53.008;6.556;2022-07-29T06:39:36;1273.37;;;800.77;;
55035;SDS011;40936;53.008;6.556;2022-07-29T06:42:05;1523.00;;;884.90;;
55035;SDS011;40936;53.008;6.556;2022-07-29T06:44:31;1999.90;;;999.90;;
55035;SDS011;40936;53.008;6.556;2022-07-29T06:46:59;1056.03;;;956.40;;
55035;SDS011;40936;53.008;6.556;2022-07-29T06:49:25;1497.57;;;840.65;;
55035;SDS011;40936;53.008;6.556;2022-07-29T06:51:51;817.58;;;744.40;;
55035;SDS011;40936;53.008;6.556;2022-07-29T06:54:17;1059.07;;;852.72;;
55035;SDS011;40936;53.008;6.556;2022-07-29T06:56:43;1014.90;;;866.22;;
55035;SDS011;40936;53.008;6.556;2022-07-29T06:59:09;1216.35;;;789.20;;
55035;SDS011;40936;53.008;6.556;2022-07-29T07:01:37;821.95;;;757.22;;
55035;SDS011;40936;53.008;6.556;2022-07-29T07:06:30;771.08;;;703.33;;
55035;SDS011;40936;53.008;6.556;2022-07-29T07:08:56;767.45;;;711.83;;
55035;SDS011;40936;53.008;6.556;2022-07-29T07:11:22;633.80;;;588.92;;
55035;SDS011;40936;53.008;6.556;2022-07-29T07:13:47;688.08;;;632.42;;
55035;SDS011;40936;53.008;6.556;2022-07-29T07:16:13;757.47;;;703.75;;
55035;SDS011;40936;53.008;6.556;2022-07-29T07:18:39;803.13;;;746.17;;
55035;SDS011;40936;53.008;6.556;2022-07-29T07:21:05;897.60;;;829.72;;
55035;SDS011;40936;53.008;6.556;2022-07-29T07:23:31;633.60;;;589.25;;
55035;SDS011;40936;53.008;6.556;2022-07-29T07:25:56;776.67;;;721.30;;
55035;SDS011;40936;53.008;6.556;2022-07-29T07:28:22;785.38;;;726.97;;
55035;SDS011;40936;53.008;6.556;2022-07-29T07:30:48;643.42;;;600.92;;
55035;SDS011;40936;53.008;6.556;2022-07-29T07:33:14;704.90;;;653.67;;
55035;SDS011;40936;53.008;6.556;2022-07-29T07:35:40;592.28;;;553.28;;
55035;SDS011;40936;53.008;6.556;2022-07-29T07:38:06;991.70;;;823.33;;
55035;SDS011;40936;53.008;6.556;2022-07-29T07:40:32;700.95;;;644.60;;
55035;SDS011;40936;53.008;6.556;2022-07-29T07:43:01;653.80;;;596.65;;
55035;SDS011;40936;53.008;6.556;2022-07-29T07:45:27;632.28;;;588.13;;
55035;SDS011;40936;53.008;6.556;2022-07-29T07:47:53;601.00;;;560.70;;
55035;SDS011;40936;53.008;6.556;2022-07-29T07:50:19;641.15;;;596.38;;
55035;SDS011;40936;53.008;6.556;2022-07-29T07:52:52;1999.90;;;999.90;;
55035;SDS011;40936;53.008;6.556;2022-07-29T07:55:20;746.75;;;681.15;;
55035;SDS011;40936;53.008;6.556;2022-07-29T07:57:46;640.45;;;592.92;;
55035;SDS011;40936;53.008;6.556;2022-07-29T08:00:12;1278.45;;;812.25;;
55035;SDS011;40936;53.008;6.556;2022-07-29T08:02:39;702.45;;;652.92;;
55035;SDS011;40936;53.008;6.556;2022-07-29T08:05:07;715.72;;;664.70;;
55035;SDS011;40936;53.008;6.556;2022-07-29T08:07:34;721.40;;;671.50;;
55035;SDS011;40936;53.008;6.556;2022-07-29T08:10:00;979.85;;;869.28;;
55035;SDS011;40936;53.008;6.556;2022-07-29T08:12:26;816.53;;;757.17;;
55035;SDS011;40936;53.008;6.556;2022-07-29T08:14:52;673.67;;;624.13;;
55035;SDS011;40936;53.008;6.556;2022-07-29T08:17:19;796.03;;;735.25;;
55035;SDS011;40936;53.008;6.556;2022-07-29T08:19:45;692.58;;;640.20;;
55035;SDS011;40936;53.008;6.556;2022-07-29T08:22:12;729.75;;;677.75;;
55035;SDS011;40936;53.008;6.556;2022-07-29T08:24:39;909.40;;;827.95;;
55035;SDS011;40936;53.008;6.556;2022-07-29T08:27:21;726.50;;;673.92;;
55035;SDS011;40936;53.008;6.556;2022-07-29T08:29:47;857.95;;;784.17;;
55035;SDS011;40936;53.008;6.556;2022-07-29T08:32:13;791.58;;;733.08;;
55035;SDS011;40936;53.008;6.556;2022-07-29T08:34:39;838.28;;;774.90;;
55035;SDS011;40936;53.008;6.556;2022-07-29T08:37:04;831.00;;;764.55;;
55035;SDS011;40936;53.008;6.556;2022-07-29T08:39:30;904.58;;;833.38;;
55035;SDS011;40936;53.008;6.556;2022-07-29T08:41:56;920.33;;;847.78;;
55035;SDS011;40936;53.008;6.556;2022-07-29T08:44:22;872.33;;;807.20;;
55035;SDS011;40936;53.008;6.556;2022-07-29T08:46:48;768.53;;;714.28;;
55035;SDS011;40936;53.008;6.556;2022-07-29T08:49:15;840.67;;;779.83;;
55035;SDS011;40936;53.008;6.556;2022-07-29T08:51:41;819.42;;;755.35;;
55035;SDS011;40936;53.008;6.556;2022-07-29T08:54:08;811.95;;;754.38;;
55035;SDS011;40936;53.008;6.556;2022-07-29T08:56:34;903.63;;;833.90;;
55035;SDS011;40936;53.008;6.556;2022-07-29T08:59:02;892.03;;;818.13;;
55035;SDS011;40936;53.008;6.556;2022-07-29T09:01:33;814.35;;;756.17;;
55035;SDS011;40936;53.008;6.556;2022-07-29T09:04:02;916.70;;;835.13;;
55035;SDS011;40936;53.008;6.556;2022-07-29T09:06:31;710.67;;;660.50;;
55035;SDS011;40936;53.008;6.556;2022-07-29T09:08:59;936.05;;;858.78;;
55035;SDS011;40936;53.008;6.556;2022-07-29T09:11:25;883.10;;;797.33;;
55035;SDS011;40936;53.008;6.556;2022-07-29T09:13:52;766.55;;;709.38;;
55035;SDS011;40936;53.008;6.556;2022-07-29T09:16:17;939.22;;;847.67;;
55035;SDS011;40936;53.008;6.556;2022-07-29T09:18:43;736.83;;;681.03;;
55035;SDS011;40936;53.008;6.556;2022-07-29T09:21:11;892.05;;;809.17;;
55035;SDS011;40936;53.008;6.556;2022-07-29T09:24:09;754.80;;;701.67;;
55035;SDS011;40936;53.008;6.556;2022-07-29T09:26:42;841.83;;;778.80;;
55035;SDS011;40936;53.008;6.556;2022-07-29T09:29:12;838.92;;;773.95;;
55035;SDS011;40936;53.008;6.556;2022-07-29T09:31:43;811.10;;;748.63;;
55035;SDS011;40936;53.008;6.556;2022-07-29T09:34:10;1100.97;;;910.90;;
55035;SDS011;40936;53.008;6.556;2022-07-29T09:39:07;936.55;;;857.20;;
55035;SDS011;40936;53.008;6.556;2022-07-29T09:41:49;895.00;;;825.65;;
55035;SDS011;40936;53.008;6.556;2022-07-29T09:44:20;887.22;;;820.97;;
55035;SDS011;40936;53.008;6.556;2022-07-29T09:49:22;864.40;;;798.53;;
55035;SDS011;40936;53.008;6.556;2022-07-29T09:51:58;977.00;;;894.70;;
55035;SDS011;40936;53.008;6.556;2022-07-29T09:54:31;877.28;;;801.45;;
55035;SDS011;40936;53.008;6.556;2022-07-29T09:57:02;1785.55;;;905.17;;
55035;SDS011;40936;53.008;6.556;2022-07-29T09:59:32;1630.78;;;947.90;;
55035;SDS011;40936;53.008;6.556;2022-07-29T10:01:58;1211.60;;;965.70;;
55035;SDS011;40936;53.008;6.556;2022-07-29T10:04:35;1671.47;;;999.90;;
55035;SDS011;40936;53.008;6.556;2022-07-29T10:09:30;1508.63;;;966.28;;
55035;SDS011;40936;53.008;6.556;2022-07-29T10:12:03;1493.65;;;999.90;;
55035;SDS011;40936;53.008;6.556;2022-07-29T10:14:34;951.88;;;859.75;;
55035;SDS011;40936;53.008;6.556;2022-07-29T10:17:00;1001.30;;;897.67;;
55035;SDS011;40936;53.008;6.556;2022-07-29T10:19:30;1138.10;;;853.60;;
55035;SDS011;40936;53.008;6.556;2022-07-29T10:21:58;806.65;;;744.55;;
55035;SDS011;40936;53.008;6.556;2022-07-29T10:24:27;1878.18;;;999.90;;
55035;SDS011;40936;53.008;6.556;2022-07-29T10:26:58;1595.75;;;982.53;;
55035;SDS011;40936;53.008;6.556;2022-07-29T10:29:25;643.78;;;594.88;;
55035;SDS011;40936;53.008;6.556;2022-07-29T10:32:06;637.15;;;586.53;;
55035;SDS011;40936;53.008;6.556;2022-07-29T10:37:14;1092.07;;;972.83;;
55035;SDS011;40936;53.008;6.556;2022-07-29T10:42:18;608.42;;;558.92;;
55035;SDS011;40936;53.008;6.556;2022-07-29T10:44:45;743.40;;;687.50;;
55035;SDS011;40936;53.008;6.556;2022-07-29T10:47:22;897.65;;;816.15;;
55035;SDS011;40936;53.008;6.556;2022-07-29T10:49:55;1055.25;;;932.22;;
55035;SDS011;40936;53.008;6.556;2022-07-29T10:52:51;700.97;;;652.08;;
55035;SDS011;40936;53.008;6.556;2022-07-29T10:55:33;730.15;;;677.97;;
55035;SDS011;40936;53.008;6.556;2022-07-29T10:58:20;755.75;;;702.28;;
55035;SDS011;40936;53.008;6.556;2022-07-29T11:00:52;866.38;;;794.97;;
55035;SDS011;40936;53.008;6.556;2022-07-29T11:06:13;763.25;;;703.05;;
55035;SDS011;40936;53.008;6.556;2022-07-29T11:08:39;1068.70;;;955.95;;
55035;SDS011;40936;53.008;6.556;2022-07-29T11:11:39;817.53;;;757.97;;
55035;SDS011;40936;53.008;6.556;2022-07-29T11:13:58;843.05;;;782.30;;
55035;SDS011;40936;53.008;6.556;2022-07-29T11:16:24;784.85;;;726.33;;
55035;SDS011;40936;53.008;6.556;2022-07-29T11:21:40;771.33;;;717.35;;
55035;SDS011;40936;53.008;6.556;2022-07-29T11:26:44;663.58;;;614.05;;
55035;SDS011;40936;53.008;6.556;2022-07-29T11:31:40;717.83;;;658.67;;
55035;SDS011;40936;53.008;6.556;2022-07-29T11:34:28;689.33;;;636.60;;
55035;SDS011;40936;53.008;6.556;2022-07-29T11:39:44;740.47;;;680.20;;
55035;SDS011;40936;53.008;6.556;2022-07-29T11:47:22;723.53;;;660.45;;
55035;SDS011;40936;53.008;6.556;2022-07-29T11:49:52;840.78;;;767.50;;
55035;SDS011;40936;53.008;6.556;2022-07-29T11:52:18;738.33;;;682.88;;
55035;SDS011;40936;53.008;6.556;2022-07-29T11:54:45;933.85;;;840.60;;
55035;SDS011;40936;53.008;6.556;2022-07-29T11:57:13;791.03;;;729.53;;
55035;SDS011;40936;53.008;6.556;2022-07-29T11:59:42;815.40;;;749.95;;
55035;SDS011;40936;53.008;6.556;2022-07-29T12:02:10;912.90;;;828.00;;
55035;SDS011;40936;53.008;6.556;2022-07-29T12:04:52;889.60;;;811.40;;
55035;SDS011;40936;53.008;6.556;2022-07-29T12:07:26;900.15;;;823.03;;
55035;SDS011;40936;53.008;6.556;2022-07-29T12:09:56;917.20;;;829.40;;
55035;SDS011;40936;53.008;6.556;2022-07-29T12:12:21;810.30;;;734.22;;
55035;SDS011;40936;53.008;6.556;2022-07-29T12:14:48;850.72;;;774.83;;
55035;SDS011;40936;53.008;6.556;2022-07-29T12:17:30;842.85;;;776.60;;
55035;SDS011;40936;53.008;6.556;2022-07-29T12:19:58;1018.80;;;909.88;;
55035;SDS011;40936;53.008;6.556;2022-07-29T12:22:26;968.05;;;872.75;;
55035;SDS011;40936;53.008;6.556;2022-07-29T12:25:00;848.90;;;772.13;;
55035;SDS011;40936;53.008;6.556;2022-07-29T12:27:28;881.72;;;799.83;;
55035;SDS011;40936;53.008;6.556;2022-07-29T12:29:57;900.45;;;814.40;;
55035;SDS011;40936;53.008;6.556;2022-07-29T12:32:38;927.55;;;835.58;;
55035;SDS011;40936;53.008;6.556;2022-07-29T12:35:06;935.33;;;848.65;;
55035;SDS011;40936;53.008;6.556;2022-07-29T12:37:34;943.25;;;853.38;;
55035;SDS011;40936;53.008;6.556;2022-07-29T12:40:02;912.63;;;826.58;;
55035;SDS011;40936;53.008;6.556;2022-07-29T12:42:29;824.92;;;753.47;;
55035;SDS011;40936;53.008;6.556;2022-07-29T12:44:55;713.22;;;645.25;;
55035;SDS011;40936;53.008;6.556;2022-07-29T12:47:20;872.50;;;782.13;;
55035;SDS011;40936;53.008;6.556;2022-07-29T12:49:47;917.42;;;832.42;;
55035;SDS011;40936;53.008;6.556;2022-07-29T12:52:29;527.88;;;485.83;;
55035;SDS011;40936;53.008;6.556;2022-07-29T12:54:57;1729.15;;;955.45;;
55035;SDS011;40936;53.008;6.556;2022-07-29T12:57:23;990.80;;;882.83;;
55035;SDS011;40936;53.008;6.556;2022-07-29T13:00:09;654.05;;;598.47;;
55035;SDS011;40936;53.008;6.556;2022-07-29T13:02:38;812.83;;;734.70;;
55035;SDS011;40936;53.008;6.556;2022-07-29T13:05:06;795.20;;;718.72;;
55035;SDS011;40936;53.008;6.556;2022-07-29T13:07:37;747.60;;;680.08;;
55035;SDS011;40936;53.008;6.556;2022-07-29T13:10:10;575.15;;;530.17;;
55035;SDS011;40936;53.008;6.556;2022-07-29T13:15:33;583.70;;;541.58;;
55035;SDS011;40936;53.008;6.556;2022-07-29T13:17:59;851.00;;;779.45;;
55035;SDS011;40936;53.008;6.556;2022-07-29T13:20:26;517.63;;;477.55;;
55035;SDS011;40936;53.008;6.556;2022-07-29T13:22:54;895.30;;;816.17;;
55035;SDS011;40936;53.008;6.556;2022-07-29T13:25:39;566.88;;;522.90;;
55035;SDS011;40936;53.008;6.556;2022-07-29T13:28:05;638.30;;;584.30;;
55035;SDS011;40936;53.008;6.556;2022-07-29T13:30:31;501.20;;;462.00;;
55035;SDS011;40936;53.008;6.556;2022-07-29T13:32:56;696.92;;;636.13;;
55035;SDS011;40936;53.008;6.556;2022-07-29T13:35:22;763.50;;;697.83;;
55035;SDS011;40936;53.008;6.556;2022-07-29T13:37:48;640.13;;;585.83;;
55035;SDS011;40936;53.008;6.556;2022-07-29T13:40:13;791.40;;;714.75;;
55035;SDS011;40936;53.008;6.556;2022-07-29T13:42:39;579.95;;;533.35;;
55035;SDS011;40936;53.008;6.556;2022-07-29T13:45:06;626.78;;;569.65;;
55035;SDS011;40936;53.008;6.556;2022-07-29T13:47:32;647.47;;;592.50;;
55035;SDS011;40936;53.008;6.556;2022-07-29T13:49:58;860.15;;;779.20;;
55035;SDS011;40936;53.008;6.556;2022-07-29T13:54:51;792.92;;;728.92;;
55035;SDS011;40936;53.008;6.556;2022-07-29T13:57:17;631.03;;;575.00;;
55035;SDS011;40936;53.008;6.556;2022-07-29T13:59:42;643.60;;;587.15;;
55035;SDS011;40936;53.008;6.556;2022-07-29T14:02:09;923.15;;;831.08;;
55035;SDS011;40936;53.008;6.556;2022-07-29T14:04:36;760.42;;;696.67;;
55035;SDS011;40936;53.008;6.556;2022-07-29T14:07:01;845.00;;;766.63;;
55035;SDS011;40936;53.008;6.556;2022-07-29T14:09:28;613.03;;;562.35;;
55035;SDS011;40936;53.008;6.556;2022-07-29T14:11:53;638.28;;;583.08;;
55035;SDS011;40936;53.008;6.556;2022-07-29T14:14:19;587.63;;;538.95;;
55035;SDS011;40936;53.008;6.556;2022-07-29T14:16:45;594.55;;;544.60;;
55035;SDS011;40936;53.008;6.556;2022-07-29T14:19:11;725.83;;;660.92;;
55035;SDS011;40936;53.008;6.556;2022-07-29T14:21:37;664.72;;;607.15;;
55035;SDS011;40936;53.008;6.556;2022-07-29T14:24:04;635.73;;;584.17;;
55035;SDS011;40936;53.008;6.556;2022-07-29T14:26:31;674.75;;;618.35;;
55035;SDS011;40936;53.008;6.556;2022-07-29T14:28:56;659.92;;;604.97;;
55035;SDS011;40936;53.008;6.556;2022-07-29T14:31:22;656.65;;;601.38;;
55035;SDS011;40936;53.008;6.556;2022-07-29T14:33:48;777.50;;;709.88;;
55035;SDS011;40936;53.008;6.556;2022-07-29T14:36:14;587.92;;;543.30;;
55035;SDS011;40936;53.008;6.556;2022-07-29T14:38:40;520.83;;;483.08;;
55035;SDS011;40936;53.008;6.556;2022-07-29T14:41:06;598.75;;;551.58;;
55035;SDS011;40936;53.008;6.556;2022-07-29T14:43:33;661.67;;;608.83;;
55035;SDS011;40936;53.008;6.556;2022-07-29T14:45:59;573.08;;;529.10;;
55035;SDS011;40936;53.008;6.556;2022-07-29T14:48:26;691.58;;;632.47;;
55035;SDS011;40936;53.008;6.556;2022-07-29T14:50:52;597.80;;;550.50;;
55035;SDS011;40936;53.008;6.556;2022-07-29T14:53:18;925.75;;;794.63;;
55035;SDS011;40936;53.008;6.556;2022-07-29T14:55:44;913.75;;;820.63;;
55035;SDS011;40936;53.008;6.556;2022-07-29T14:58:10;1318.47;;;856.47;;
55035;SDS011;40936;53.008;6.556;2022-07-29T15:00:35;960.83;;;868.60;;